Pagrindinis puslapis
METAR-TAF:

METAR-TAF

Oro uostai :

Fort Lauderdale Executive Airport

Fort Loderdeilas, Florida, Jungtinės Amerikos Valstijos

platuma: 26-12-00N, ilguma: 080-11-00W, Aukštis: 4 m

Dabartinis oras

Ataskaita buvo paskelbta 50 minutes, ne 10:53 UTC
Ramus vėjas
Temperatūra 15°C
Drėgmė 94%
Slėgis 1013 hPa
Matomumas: 16.1 km
Giedras dangus

METAR: KFXE 191053Z AUTO 00000KT 10SM CLR 15/14 A2991 RMK AO2 SLP130 T01500139

Laikas: 06:43 (11:43 UTC)

Prognozė

Ataskaita buvo paskelbta 17 minutes, ne 11:26 UTC
Prognozė galioja nuo 19 metu 12 UTC su 20 metu 12 UTC
Vėjas 3 kt nuo kintamojo kryptimis
Matomumas: 10 km
Mažai debesys ne aukštis 3000 ft
Su prošvaistėmis ne aukštis 5000 ft
Nuo 19 metu 1500 UTC
Vėjas 10 kt iš Vakarų
Matomumas: 10 km
Mažai debesys ne aukštis 2500 ft
Su prošvaistėmis ne aukštis 4000 ft
Nuo 20 metu 0200 UTC
Vėjas 4 kt nuo kintamojo kryptimis
Matomumas: 10 km
Mažai debesys ne aukštis 3000 ft

TAF: KFXE 191126Z 1912/2012 VRB03KT P6SM FEW030 BKN050 FM191500 28010KT P6SM FEW025 BKN040 FM200200 VRB04KT P6SM FEW030

Orai ataskaitas ir orų prognozės (METAR, TAF).

turimą stotys yra geltonos ir raudonos taškus žemėlapyje.

Perkelti pele per norėdami pamatyti stoties vardą.

Tada spustelėkite, norėdami matyti oro stebėjimo ir prognozės.

Norėdami pakeisti žemėlapį: spustelėkite ant žalios mygtukų su juodo kryžiaus žemyn,; žalią mygtuką su brūkšneliu, jei norite nutolinti; arba žalių rodyklių gretimoms žemėlapius.


METAR-TAF: